createdAt,value
2023-02-22T00:00:07.980Z,39.90
2023-02-22T00:03:18.228Z,39.70
2023-02-22T00:06:26.964Z,39.40
2023-02-22T00:09:39.232Z,38.80
2023-02-22T00:12:49.264Z,38.20
2023-02-22T00:16:02.665Z,38.10
2023-02-22T00:19:11.156Z,38.10
2023-02-22T00:22:23.682Z,38.30
2023-02-22T00:25:33.278Z,38.50
2023-02-22T00:28:44.177Z,38.70
2023-02-22T00:31:58.597Z,39.00
2023-02-22T00:35:11.874Z,39.00
2023-02-22T00:38:19.753Z,38.50
2023-02-22T00:41:31.838Z,38.40
2023-02-22T00:44:42.910Z,38.50
2023-02-22T00:47:55.440Z,38.00
2023-02-22T00:51:07.989Z,37.80
2023-02-22T00:54:22.584Z,37.80
2023-02-22T00:57:36.124Z,37.60
2023-02-22T01:00:47.629Z,37.90
2023-02-22T01:03:58.274Z,38.00
2023-02-22T01:07:08.168Z,38.10
2023-02-22T01:10:16.835Z,38.20
2023-02-22T01:13:29.840Z,38.30
2023-02-22T01:16:40.452Z,38.50
2023-02-22T01:19:51.414Z,38.60
2023-02-22T01:23:05.206Z,38.70
2023-02-22T01:26:15.799Z,38.70
2023-02-22T01:29:27.234Z,38.80
2023-02-22T01:32:38.392Z,38.40
2023-02-22T01:35:49.180Z,38.80
2023-02-22T01:38:59.320Z,37.80
2023-02-22T01:42:10.584Z,37.70
2023-02-22T01:45:41.573Z,37.90
2023-02-22T01:48:54.858Z,38.10
2023-02-22T01:52:00.821Z,38.20
2023-02-22T01:55:13.377Z,38.30
2023-02-22T01:58:25.756Z,38.40
2023-02-22T02:01:35.013Z,38.40
2023-02-22T02:04:45.234Z,38.40
2023-02-22T02:07:54.678Z,38.10
2023-02-22T02:11:09.063Z,38.30
2023-02-22T02:14:18.855Z,38.40
2023-02-22T02:17:30.884Z,38.70
2023-02-22T02:20:44.914Z,38.80
2023-02-22T02:24:16.877Z,38.60
2023-02-22T02:27:27.325Z,38.90
2023-02-22T02:31:03.755Z,38.90
2023-02-22T02:34:17.536Z,39.10
2023-02-22T02:37:30.882Z,39.00
2023-02-22T02:40:40.256Z,38.50
2023-02-22T02:43:51.962Z,38.80
2023-02-22T02:47:03.545Z,39.10
2023-02-22T02:50:14.515Z,39.10
2023-02-22T02:53:25.522Z,38.70
2023-02-22T02:56:37.307Z,38.60
2023-02-22T02:59:50.552Z,38.80
2023-02-22T03:03:12.991Z,38.90
2023-02-22T03:06:44.823Z,38.70
2023-02-22T03:10:02.191Z,38.20
2023-02-22T03:13:17.656Z,38.40
2023-02-22T03:16:33.194Z,38.40
2023-02-22T03:19:45.594Z,38.40
2023-02-22T03:22:56.303Z,38.10
2023-02-22T03:26:11.070Z,38.00
2023-02-22T03:29:22.686Z,38.20
2023-02-22T03:32:34.779Z,38.30
2023-02-22T03:35:48.714Z,38.20
2023-02-22T03:38:59.293Z,37.80
2023-02-22T03:42:12.505Z,37.80
2023-02-22T03:45:22.288Z,38.00
2023-02-22T03:48:34.533Z,37.90
2023-02-22T03:51:43.918Z,37.70
2023-02-22T03:54:57.695Z,37.60
2023-02-22T03:58:10.380Z,37.70
2023-02-22T04:01:24.444Z,37.80
2023-02-22T04:04:34.257Z,37.90
2023-02-22T04:07:47.614Z,37.60
2023-02-22T04:10:56.560Z,37.50
2023-02-22T04:14:05.811Z,37.60
2023-02-22T04:17:16.001Z,37.60
2023-02-22T04:20:28.958Z,37.60
2023-02-22T04:23:40.380Z,37.60
2023-02-22T04:26:49.506Z,37.50
2023-02-22T04:30:00.596Z,37.60
2023-02-22T04:33:11.280Z,37.60
2023-02-22T04:36:24.205Z,37.40
2023-02-22T04:39:34.914Z,37.40
2023-02-22T04:42:46.984Z,37.40
2023-02-22T04:46:00.414Z,37.50
2023-02-22T04:49:09.449Z,37.40
2023-02-22T04:52:18.789Z,37.40
2023-02-22T04:55:28.666Z,37.20
2023-02-22T04:58:40.357Z,37.30
2023-02-22T05:01:53.110Z,37.40
2023-02-22T05:05:06.460Z,37.30
2023-02-22T05:08:17.654Z,37.20
2023-02-22T05:11:31.424Z,37.20
2023-02-22T05:14:43.991Z,37.30
2023-02-22T05:17:53.513Z,37.30
2023-02-22T05:21:05.367Z,37.30
2023-02-22T05:24:18.884Z,37.20
2023-02-22T05:27:30.439Z,37.10
2023-02-22T05:30:43.857Z,37.20
2023-02-22T05:33:56.617Z,37.20
2023-02-22T05:37:10.528Z,37.20
2023-02-22T05:40:21.147Z,37.10
2023-02-22T05:43:32.972Z,37.10
2023-02-22T05:46:45.489Z,37.20
2023-02-22T05:49:54.459Z,37.20
2023-02-22T05:53:05.491Z,37.10
2023-02-22T05:56:20.035Z,37.10
2023-02-22T05:59:32.688Z,37.20
2023-02-22T06:02:45.275Z,37.20
2023-02-22T06:05:56.255Z,37.10
2023-02-22T06:09:10.461Z,37.10
2023-02-22T06:12:22.826Z,37.10
2023-02-22T06:15:34.257Z,37.10
2023-02-22T06:18:43.953Z,37.20
2023-02-22T06:21:57.523Z,37.10
2023-02-22T06:25:10.152Z,37.00
2023-02-22T06:28:21.197Z,37.00
2023-02-22T06:31:30.186Z,37.10
2023-02-22T06:34:42.704Z,37.00
2023-02-22T06:37:57.038Z,37.00
2023-02-22T06:41:09.981Z,36.80
2023-02-22T06:44:21.466Z,37.00
2023-02-22T06:47:32.327Z,36.90
2023-02-22T06:50:43.187Z,36.90
2023-02-22T06:57:12.942Z,36.80
2023-02-22T07:00:28.381Z,36.90
2023-02-22T07:03:41.309Z,37.20
2023-02-22T07:06:54.039Z,36.90
2023-02-22T07:10:05.739Z,37.00
2023-02-22T07:13:18.767Z,37.10
2023-02-22T07:16:30.709Z,37.40
2023-02-22T07:19:43.876Z,36.80
2023-02-22T07:22:52.987Z,36.60
2023-02-22T07:26:05.835Z,36.50
2023-02-22T07:29:17.762Z,36.70
2023-02-22T07:32:27.591Z,36.60
2023-02-22T07:35:40.150Z,36.70
2023-02-22T07:38:55.002Z,36.70
2023-02-22T07:42:05.847Z,36.80
2023-02-22T07:45:19.331Z,36.90
2023-02-22T07:48:27.657Z,36.80
2023-02-22T07:51:36.779Z,37.00
2023-02-22T07:54:48.147Z,37.10
2023-02-22T07:57:58.719Z,37.30
2023-02-22T08:01:11.245Z,37.00
2023-02-22T08:04:23.517Z,36.70
2023-02-22T08:07:37.002Z,36.70
2023-02-22T08:10:42.470Z,36.70
2023-02-22T08:13:49.832Z,36.70
2023-02-22T08:16:58.134Z,36.70
2023-02-22T08:20:12.391Z,36.80
2023-02-22T08:23:21.920Z,37.00
2023-02-22T08:26:31.875Z,37.40
2023-02-22T08:29:41.860Z,37.40
2023-02-22T08:32:53.582Z,36.80
2023-02-22T08:36:04.477Z,36.60
2023-02-22T08:39:16.640Z,36.70
2023-02-22T08:42:28.846Z,36.70
2023-02-22T08:45:39.451Z,36.80
2023-02-22T08:48:57.017Z,36.80
2023-02-22T08:52:08.728Z,37.00
2023-02-22T08:55:19.875Z,37.20
2023-02-22T08:58:32.677Z,37.30
2023-02-22T09:01:45.179Z,36.90
2023-02-22T09:04:54.478Z,36.70
2023-02-22T09:08:05.846Z,36.70
2023-02-22T09:11:17.201Z,36.80
2023-02-22T09:14:25.379Z,36.80
2023-02-22T09:17:38.629Z,36.80
2023-02-22T09:20:49.637Z,37.10
2023-02-22T09:24:02.606Z,37.30
2023-02-22T09:27:13.956Z,37.30
2023-02-22T09:30:25.176Z,37.10
2023-02-22T09:33:34.908Z,36.80
2023-02-22T09:36:44.549Z,36.80
2023-02-22T09:39:53.946Z,36.80
2023-02-22T09:43:09.634Z,36.90
2023-02-22T09:46:35.265Z,36.90
2023-02-22T09:49:49.390Z,37.00
2023-02-22T09:53:03.422Z,37.30
2023-02-22T09:56:14.383Z,37.30
2023-02-22T09:59:30.164Z,37.00
2023-02-22T10:02:43.800Z,36.70
2023-02-22T10:05:57.454Z,36.80
2023-02-22T10:09:09.674Z,36.80
2023-02-22T10:12:22.551Z,36.90
2023-02-22T10:15:56.451Z,36.80
2023-02-22T10:19:11.339Z,37.00
2023-02-22T10:22:28.452Z,37.30
2023-02-22T10:25:41.700Z,37.30
2023-02-22T10:28:56.407Z,36.90
2023-02-22T10:32:08.384Z,36.80
2023-02-22T10:35:24.228Z,37.30
2023-02-22T10:38:36.062Z,36.90
2023-02-22T10:41:47.132Z,36.80
2023-02-22T10:44:58.788Z,36.70
2023-02-22T10:48:14.180Z,36.80
2023-02-22T10:51:27.449Z,36.80
2023-02-22T10:54:40.084Z,37.00
2023-02-22T10:57:52.232Z,37.40
2023-02-22T11:01:01.642Z,37.20
2023-02-22T11:04:17.915Z,36.80
2023-02-22T11:07:27.835Z,36.70
2023-02-22T11:10:39.783Z,36.70
2023-02-22T11:13:53.666Z,36.80
2023-02-22T11:17:06.586Z,36.80
2023-02-22T11:20:25.922Z,36.90
2023-02-22T11:23:38.309Z,37.00
2023-02-22T11:26:50.621Z,37.30
2023-02-22T11:30:00.787Z,37.10
2023-02-22T11:33:13.414Z,36.70
2023-02-22T11:36:42.643Z,36.70
2023-02-22T11:39:53.224Z,36.80
2023-02-22T11:43:14.569Z,36.80
2023-02-22T11:46:26.934Z,36.80
2023-02-22T11:49:38.861Z,36.90
2023-02-22T11:52:48.883Z,37.10
2023-02-22T11:56:05.774Z,37.10
2023-02-22T11:59:23.904Z,37.00
2023-02-22T12:02:56.925Z,36.60
2023-02-22T12:06:16.309Z,36.60
2023-02-22T12:09:25.293Z,36.70
2023-02-22T12:12:36.262Z,36.70
2023-02-22T12:15:48.162Z,36.70
2023-02-22T12:19:14.339Z,36.90
2023-02-22T12:22:27.938Z,37.10
2023-02-22T12:25:41.367Z,37.10
2023-02-22T12:28:48.891Z,36.90
2023-02-22T12:32:00.237Z,36.90
2023-02-22T12:35:16.510Z,37.00
2023-02-22T12:38:30.078Z,37.00
2023-02-22T12:41:40.667Z,37.00
2023-02-22T12:44:53.812Z,37.10
2023-02-22T12:48:09.418Z,37.10
2023-02-22T12:51:27.985Z,37.10
2023-02-22T12:54:45.624Z,37.20
2023-02-22T12:57:58.879Z,37.20
2023-02-22T13:01:10.351Z,37.30
2023-02-22T13:04:22.036Z,37.20
2023-02-22T13:07:39.194Z,37.00
2023-02-22T13:11:19.807Z,36.70
2023-02-22T13:14:50.489Z,36.80
2023-02-22T13:18:07.879Z,37.20
2023-02-22T13:21:25.161Z,37.80
2023-02-22T13:24:37.677Z,37.80
2023-02-22T13:27:48.562Z,37.70
2023-02-22T13:31:18.037Z,37.50
2023-02-22T13:34:36.425Z,37.20
2023-02-22T13:37:54.011Z,36.80
2023-02-22T13:41:24.611Z,36.90
2023-02-22T13:44:50.643Z,36.90
2023-02-22T13:48:16.892Z,37.50
2023-02-22T13:51:41.161Z,38.10
2023-02-22T13:54:53.527Z,38.30
2023-02-22T13:58:09.521Z,37.70
2023-02-22T14:01:31.242Z,37.10
2023-02-22T14:04:44.687Z,37.20
2023-02-22T14:07:56.937Z,37.30
2023-02-22T14:11:06.977Z,37.50
2023-02-22T14:14:18.979Z,37.80
2023-02-22T14:17:29.695Z,37.80
2023-02-22T14:20:41.626Z,38.10
2023-02-22T14:23:55.296Z,37.90
2023-02-22T14:27:09.025Z,38.30
2023-02-22T14:30:29.882Z,37.40
2023-02-22T14:37:33.424Z,37.40
2023-02-22T14:40:45.508Z,37.40
2023-02-22T14:43:56.463Z,37.60
2023-02-22T14:47:05.714Z,37.80
2023-02-22T14:50:18.441Z,38.40
2023-02-22T14:53:32.715Z,38.00
2023-02-22T14:56:48.336Z,38.00
2023-02-22T15:00:20.607Z,37.90
2023-02-22T15:03:36.326Z,37.20
2023-02-22T15:06:50.144Z,37.40
2023-02-22T15:10:14.810Z,37.40
2023-02-22T15:13:24.897Z,37.50
2023-02-22T15:16:35.319Z,37.60
2023-02-22T15:19:48.493Z,37.70
2023-02-22T15:23:02.572Z,37.70
2023-02-22T15:26:14.917Z,37.60
2023-02-22T15:29:27.807Z,37.50
2023-02-22T15:33:01.375Z,37.00
2023-02-22T15:35:59.586Z,36.60
2023-02-22T15:39:12.975Z,36.20
2023-02-22T15:42:25.452Z,36.30
2023-02-22T15:45:39.025Z,36.30
2023-02-22T15:48:49.121Z,36.40
2023-02-22T15:52:11.255Z,37.00
2023-02-22T15:55:25.530Z,37.20
2023-02-22T15:58:35.732Z,37.20
2023-02-22T16:01:48.104Z,36.90
2023-02-22T16:05:03.795Z,36.40
2023-02-22T16:08:20.563Z,36.30
2023-02-22T16:11:33.898Z,36.30
2023-02-22T16:14:45.449Z,36.50
2023-02-22T16:18:02.289Z,36.70
2023-02-22T16:21:07.585Z,36.80
2023-02-22T16:24:30.325Z,37.00
2023-02-22T16:27:49.522Z,37.00
2023-02-22T16:31:04.097Z,37.00
2023-02-22T16:34:12.794Z,36.70
2023-02-22T16:37:26.353Z,36.50
2023-02-22T16:40:38.142Z,36.40
2023-02-22T16:43:48.788Z,35.80
2023-02-22T16:46:59.340Z,35.90
2023-02-22T16:50:12.323Z,36.00
2023-02-22T16:53:28.259Z,36.30
2023-02-22T16:56:38.893Z,36.60
2023-02-22T16:59:54.418Z,36.80
2023-02-22T17:03:05.141Z,37.00
2023-02-22T17:06:18.804Z,37.00
2023-02-22T17:09:31.260Z,38.80
2023-02-22T17:12:45.555Z,38.10
2023-02-22T17:15:55.549Z,37.00
2023-02-22T17:19:05.618Z,36.30
2023-02-22T17:22:15.862Z,36.70
2023-02-22T17:25:29.931Z,36.90
2023-02-22T17:28:39.460Z,36.90
2023-02-22T17:31:49.785Z,36.90
2023-02-22T17:35:03.071Z,36.90
2023-02-22T17:38:10.613Z,36.60
2023-02-22T17:41:21.566Z,36.40
2023-02-22T17:44:31.630Z,36.00
2023-02-22T17:47:39.767Z,35.60
2023-02-22T17:50:50.050Z,35.30
2023-02-22T17:54:03.197Z,35.50
2023-02-22T17:57:16.937Z,35.70
2023-02-22T18:00:33.679Z,35.80
2023-02-22T18:03:46.423Z,36.00
2023-02-22T18:06:55.905Z,36.30
2023-02-22T18:10:07.059Z,36.40
2023-02-22T18:13:20.875Z,36.20
2023-02-22T18:16:31.587Z,36.40
2023-02-22T18:19:44.216Z,36.10
2023-02-22T18:22:53.653Z,35.60
2023-02-22T18:26:12.505Z,35.50
2023-02-22T18:29:16.084Z,35.70
2023-02-22T18:32:30.249Z,35.40
2023-02-22T18:35:44.614Z,36.30
2023-02-22T18:38:57.691Z,35.60
2023-02-22T18:42:09.333Z,35.60
2023-02-22T18:45:21.070Z,35.40
2023-02-22T18:48:33.400Z,35.30
2023-02-22T18:51:46.590Z,35.90
2023-02-22T18:54:55.063Z,35.60
2023-02-22T18:58:06.519Z,35.80
2023-02-22T19:01:19.471Z,34.90
2023-02-22T19:04:32.577Z,34.40
2023-02-22T19:07:45.882Z,34.20
2023-02-22T19:10:51.363Z,34.20
2023-02-22T19:14:06.019Z,34.70
2023-02-22T19:17:18.593Z,34.60
2023-02-22T19:20:32.634Z,34.70
2023-02-22T19:23:46.080Z,34.40
2023-02-22T19:26:58.941Z,33.90
2023-02-22T19:30:10.413Z,33.50
2023-02-22T19:33:25.233Z,33.60
2023-02-22T19:36:37.016Z,33.70
2023-02-22T19:39:50.977Z,33.60
2023-02-22T19:43:01.044Z,33.50
2023-02-22T19:46:13.571Z,33.50
2023-02-22T19:52:36.151Z,33.20
2023-02-22T19:55:49.447Z,32.90
2023-02-22T19:58:56.069Z,32.80
2023-02-22T20:02:09.206Z,33.10
2023-02-22T20:05:20.514Z,33.00
2023-02-22T20:08:29.446Z,32.80
2023-02-22T20:11:41.519Z,32.90
2023-02-22T20:14:52.540Z,32.80
2023-02-22T20:18:03.266Z,32.80
2023-02-22T20:21:17.414Z,32.70
2023-02-22T20:24:27.000Z,32.60
2023-02-22T20:27:38.435Z,33.00
2023-02-22T20:30:51.728Z,32.40
2023-02-22T20:34:03.582Z,32.20
2023-02-22T20:37:15.828Z,32.10
2023-02-22T20:40:29.011Z,32.30
2023-02-22T20:43:42.473Z,32.10
2023-02-22T20:46:53.266Z,32.00
2023-02-22T20:50:05.075Z,31.90
2023-02-22T20:53:14.856Z,31.80
2023-02-22T20:56:24.335Z,31.70
2023-02-22T20:59:36.992Z,31.60
2023-02-22T21:02:50.398Z,31.60
2023-02-22T21:05:58.512Z,31.70
2023-02-22T21:09:09.376Z,31.80
2023-02-22T21:12:20.473Z,31.70
2023-02-22T21:15:32.126Z,31.60
2023-02-22T21:18:42.331Z,31.50
2023-02-22T21:21:53.942Z,31.50
2023-02-22T21:25:03.376Z,31.40
2023-02-22T21:28:13.036Z,32.00
2023-02-22T21:31:21.933Z,31.60
2023-02-22T21:34:33.891Z,31.60
2023-02-22T21:37:44.273Z,31.70
2023-02-22T21:40:55.819Z,31.70
2023-02-22T21:44:08.467Z,31.50
2023-02-22T21:47:19.438Z,31.50
2023-02-22T21:50:30.472Z,31.20
2023-02-22T21:53:40.606Z,31.10
2023-02-22T21:56:49.653Z,31.10
2023-02-22T22:00:00.755Z,31.10
2023-02-22T22:03:13.231Z,31.80
2023-02-22T22:06:25.190Z,31.30
2023-02-22T22:09:37.813Z,31.20
2023-02-22T22:12:49.341Z,31.10
2023-02-22T22:16:00.351Z,31.00
2023-02-22T22:19:12.304Z,30.90
2023-02-22T22:22:24.830Z,31.10
2023-02-22T22:25:39.900Z,31.50
2023-02-22T22:28:50.812Z,33.10
2023-02-22T22:32:01.469Z,32.90
2023-02-22T22:35:16.563Z,32.20
2023-02-22T22:38:28.742Z,32.00
2023-02-22T22:41:41.425Z,31.70
2023-02-22T22:44:55.113Z,31.40
2023-02-22T22:48:07.408Z,31.10
2023-02-22T22:51:21.701Z,31.10
2023-02-22T22:54:32.745Z,31.80
2023-02-22T22:57:41.007Z,31.20
2023-02-22T23:00:50.563Z,31.20
2023-02-22T23:04:02.355Z,31.20
2023-02-22T23:07:11.999Z,31.00
2023-02-22T23:10:26.961Z,31.00
2023-02-22T23:13:36.230Z,30.80
2023-02-22T23:16:49.576Z,30.70
2023-02-22T23:20:01.281Z,30.60
2023-02-22T23:23:14.628Z,30.60
2023-02-22T23:26:28.169Z,30.50
2023-02-22T23:29:41.139Z,30.30
2023-02-22T23:32:51.327Z,30.60
2023-02-22T23:36:01.589Z,30.80
2023-02-22T23:39:15.206Z,30.90
2023-02-22T23:42:26.019Z,31.00
2023-02-22T23:45:38.803Z,31.40
2023-02-22T23:48:51.377Z,30.90
2023-02-22T23:52:03.491Z,30.60
2023-02-22T23:55:21.355Z,30.90
2023-02-22T23:58:35.132Z,30.40
